Time;durP1;ratioP1;P1;durP2;ratioP2;P2;SDS_P1;SDS_P2;PMS_P1;PMS_P2;Temp;Humidity;BMP_temperature;BMP_pressure;BME280_temperature;BME280_humidity;BME280_pressure;Samples;Min_cycle;Max_cycle;Signal;HPM_P1;HPM_P2
2023/01/22 00:02:10;;;;;;;;;;;;;;;;;;6233281;22;19955;-83
2023/01/22 00:04:36;;;;;;;;;;;;;;;;;;6263167;22;20332;-83
2023/01/22 00:07:02;;;;;;;;;;;;;;;;;;6233844;22;20072;-83
2023/01/22 00:09:28;;;;;;;;;;;;;;;;;;6234045;22;19915;-83
2023/01/22 00:11:54;;;;;;;;;;;;;;;;;;6238666;22;19919;-83
2023/01/22 00:14:20;;;;;;;;;;;;;;;;;;6207693;22;19923;-83
2023/01/22 00:16:46;;;;;;;;;;;;;;;;;;6260550;22;19966;-83
2023/01/22 00:19:12;;;;;;;;;;;;;;;;;;6208815;22;19986;-83
2023/01/22 00:21:38;;;;;;;;;;;;;;;;;;6261757;22;19926;-84
2023/01/22 00:24:04;;;;;;;;;;;;;;;;;;6260355;22;19982;-83
2023/01/22 00:26:30;;;;;;;;;;;;;;;;;;6235556;22;20352;-83
2023/01/22 00:28:56;;;;;;;;;;;;;;;;;;6211628;22;19924;-83
2023/01/22 00:31:22;;;;;;;;;;;;;;;;;;6233853;22;19919;-83
2023/01/22 00:33:48;;;;;;;;;;;;;;;;;;6209646;22;19922;-83
2023/01/22 00:36:14;;;;;;;;;;;;;;;;;;6232744;22;19919;-83
2023/01/22 00:38:40;;;;;;;;;;;;;;;;;;6260262;22;20394;-83
2023/01/22 00:41:06;;;;;;;;;;;;;;;;;;6261196;22;19923;-83
2023/01/22 00:43:32;;;;;;;;;;;;;;;;;;6264658;22;19919;-83
2023/01/22 00:45:58;;;;;;;;;;;;;;;;;;6237842;22;19989;-83
2023/01/22 00:48:24;;;;;;;;;;;;;;;;;;6262957;22;20404;-83
2023/01/22 00:50:50;;;;;;;;;;;;;;;;;;6235981;22;20659;-83
2023/01/22 00:53:16;;;;;;;;;;;;;;;;;;6259113;22;19919;-83
2023/01/22 00:55:42;;;;;;;;;;;;;;;;;;6233449;22;19926;-83
2023/01/22 00:58:08;;;;;;;;;;;;;;;;;;6233764;22;19947;-83
2023/01/22 01:00:34;;;;;;;;;;;;;;;;;;6264224;22;19923;-83
2023/01/22 01:05:44;;;;;;;;;;;;;;;;;;6232636;22;19924;-83
2023/01/22 01:08:10;;;;;;;;;;;;;;;;;;6208144;22;19931;-83
2023/01/22 01:10:36;;;;;;;;;;;;;;;;;;6262509;22;19964;-83
2023/01/22 01:13:03;;;;;;;;;;;;;;;;;;6209995;22;19919;-83
2023/01/22 01:15:29;;;;;;;;;;;;;;;;;;6236238;22;19922;-83
2023/01/22 01:17:55;;;;;;;;;;;;;;;;;;6234801;22;19919;-83
2023/01/22 01:20:21;;;;;;;;;;;;;;;;;;6232752;22;19923;-83
2023/01/22 01:22:46;;;;;;;;;;;;;;;;;;6210101;22;20344;-83
2023/01/22 01:25:12;;;;;;;;;;;;;;;;;;6259125;22;19942;-83
2023/01/22 01:27:38;;;;;;;;;;;;;;;;;;6236334;22;19934;-82
2023/01/22 01:30:04;;;;;;;;;;;;;;;;;;6260915;22;19919;-83
2023/01/22 01:32:30;;;;;;;;;;;;;;;;;;6235732;22;19998;-83
2023/01/22 01:34:56;;;;;;;;;;;;;;;;;;6235816;22;19927;-83
2023/01/22 01:37:22;;;;;;;;;;;;;;;;;;6234199;22;20405;-83
2023/01/22 01:39:51;;;;;;;;;;;;;;;;;;6264498;22;19977;-83
2023/01/22 01:42:17;;;;;;;;;;;;;;;;;;6233564;22;19980;-83
2023/01/22 01:44:43;;;;;;;;;;;;;;;;;;6237546;22;19923;-82
2023/01/22 01:47:09;;;;;;;;;;;;;;;;;;6261854;22;19968;-83
2023/01/22 01:49:35;;;;;;;;;;;;;;;;;;6266292;22;19919;-83
2023/01/22 01:52:01;;;;;;;;;;;;;;;;;;6264668;22;19934;-83
2023/01/22 01:54:27;;;;;;;;;;;;;;;;;;6232865;22;19925;-83
2023/01/22 01:56:52;;;;;;;;;;;;;;;;;;6263376;22;19920;-83
2023/01/22 01:59:18;;;;;;;;;;;;;;;;;;6209153;22;19915;-83
2023/01/22 02:01:44;;;;;;;;;;;;;;;;;;6264451;22;20248;-83
2023/01/22 02:04:10;;;;;;;;;;;;;;;;;;6261565;22;19926;-83
2023/01/22 02:06:36;;;;;;;;;;;;;;;;;;6234117;22;19923;-83
2023/01/22 02:09:02;;;;;;;;;;;;;;;;;;6234247;22;19951;-83
2023/01/22 02:11:28;;;;;;;;;;;;;;;;;;6236384;22;19959;-83
2023/01/22 02:13:54;;;;;;;;;;;;;;;;;;6232824;22;19919;-83
2023/01/22 02:16:20;;;;;;;;;;;;;;;;;;6230035;22;19955;-83
2023/01/22 02:18:46;;;;;;;;;;;;;;;;;;6207072;22;20395;-83
2023/01/22 02:21:12;;;;;;;;;;;;;;;;;;6208178;22;19919;-83
2023/01/22 02:23:38;;;;;;;;;;;;;;;;;;6234146;22;19984;-83
2023/01/22 02:26:04;;;;;;;;;;;;;;;;;;6231897;22;20002;-83
2023/01/22 02:28:30;;;;;;;;;;;;;;;;;;6210110;22;19923;-83
2023/01/22 02:30:56;;;;;;;;;;;;;;;;;;6208252;22;19938;-83
2023/01/22 02:33:22;;;;;;;;;;;;;;;;;;6205585;22;19919;-83
2023/01/22 02:35:48;;;;;;;;;;;;;;;;;;6208962;22;19922;-83
2023/01/22 02:38:14;;;;;;;;;;;;;;;;;;6206333;22;20248;-83
2023/01/22 02:40:47;;;;;;;;;;;;;;;;;;6233129;22;19986;-82
2023/01/22 02:43:13;;;;;;;;;;;;;;;;;;6207739;22;20355;-83
2023/01/22 02:45:39;;;;;;;;;;;;;;;;;;6212272;22;19923;-83
2023/01/22 02:48:05;;;;;;;;;;;;;;;;;;6262137;22;19942;-83
2023/01/22 02:50:31;;;;;;;;;;;;;;;;;;6265162;22;20018;-83
2023/01/22 02:52:57;;;;;;;;;;;;;;;;;;6210461;22;20721;-83
2023/01/22 02:55:23;;;;;;;;;;;;;;;;;;6259128;22;19919;-83
2023/01/22 02:57:49;;;;;;;;;;;;;;;;;;6259905;22;19990;-83
2023/01/22 03:00:15;;;;;;;;;;;;;;;;;;6230420;22;19919;-83
2023/01/22 03:02:41;;;;;;;;;;;;;;;;;;6239515;22;20320;-83
2023/01/22 03:05:07;;;;;;;;;;;;;;;;;;6233933;22;20294;-83
2023/01/22 03:07:41;;;;;;;;;;;;;;;;;;6234037;22;19946;-83
2023/01/22 03:10:07;;;;;;;;;;;;;;;;;;6260501;22;19921;-83
2023/01/22 03:23:32;;;;;;;;;;;;;;;;;;6235789;22;19953;-82
2023/01/22 03:25:58;;;;;;;;;;;;;;;;;;6209301;22;19923;-82
2023/01/22 03:28:25;;;;;;;;;;;;;;;;;;6259451;22;19994;-83
2023/01/22 03:30:51;;;;;;;;;;;;;;;;;;6233531;22;20351;-83
2023/01/22 03:33:17;;;;;;;;;;;;;;;;;;6260101;22;19953;-83
2023/01/22 03:35:43;;;;;;;;;;;;;;;;;;6232544;22;20339;-83
2023/01/22 03:38:09;;;;;;;;;;;;;;;;;;6260828;22;20294;-83
2023/01/22 03:40:35;;;;;;;;;;;;;;;;;;6210263;22;19919;-83
2023/01/22 03:43:01;;;;;;;;;;;;;;;;;;6209308;22;20256;-83
2023/01/22 03:45:26;;;;;;;;;;;;;;;;;;6207414;22;20367;-82
2023/01/22 03:47:52;;;;;;;;;;;;;;;;;;6233791;22;20240;-83
2023/01/22 03:50:18;;;;;;;;;;;;;;;;;;6232088;22;19938;-83
2023/01/22 03:52:44;;;;;;;;;;;;;;;;;;6207907;22;19951;-83
2023/01/22 03:55:10;;;;;;;;;;;;;;;;;;6206239;22;19930;-83
2023/01/22 03:57:36;;;;;;;;;;;;;;;;;;6211993;22;19926;-83
2023/01/22 04:00:06;;;;;;;;;;;;;;;;;;6209957;22;19915;-83
2023/01/22 04:02:32;;;;;;;;;;;;;;;;;;6210187;22;19915;-83
2023/01/22 04:04:58;;;;;;;;;;;;;;;;;;6212986;22;19919;-83
2023/01/22 04:07:24;;;;;;;;;;;;;;;;;;6208675;22;19923;-83
2023/01/22 04:09:50;;;;;;;;;;;;;;;;;;6236789;22;19923;-83
2023/01/22 04:12:16;;;;;;;;;;;;;;;;;;6208728;22;19922;-83
2023/01/22 04:14:42;;;;;;;;;;;;;;;;;;6236952;22;19919;-83
2023/01/22 04:17:08;;;;;;;;;;;;;;;;;;6259646;22;19919;-84
2023/01/22 04:19:33;;;;;;;;;;;;;;;;;;6236763;22;20349;-83
2023/01/22 04:21:59;;;;;;;;;;;;;;;;;;6263864;22;19923;-83
2023/01/22 04:24:25;;;;;;;;;;;;;;;;;;6259934;22;19927;-83
2023/01/22 04:26:51;;;;;;;;;;;;;;;;;;6263365;22;20030;-83
2023/01/22 04:29:17;;;;;;;;;;;;;;;;;;6260941;22;19930;-83
2023/01/22 04:31:43;;;;;;;;;;;;;;;;;;6237105;22;19916;-83
2023/01/22 04:34:09;;;;;;;;;;;;;;;;;;6234635;22;20000;-83
2023/01/22 04:36:35;;;;;;;;;;;;;;;;;;6236382;22;20340;-83
2023/01/22 04:39:01;;;;;;;;;;;;;;;;;;6264360;22;19916;-83
2023/01/22 04:41:27;;;;;;;;;;;;;;;;;;6234574;22;19919;-83
2023/01/22 04:43:53;;;;;;;;;;;;;;;;;;6210889;22;20528;-83
2023/01/22 04:46:19;;;;;;;;;;;;;;;;;;6232677;22;19935;-84
2023/01/22 04:48:45;;;;;;;;;;;;;;;;;;6212252;22;19915;-83
2023/01/22 04:51:11;;;;;;;;;;;;;;;;;;6233534;22;19915;-83
2023/01/22 04:53:37;;;;;;;;;;;;;;;;;;6234793;22;20293;-83
2023/01/22 04:56:03;;;;;;;;;;;;;;;;;;6235793;22;20513;-83
2023/01/22 04:58:29;;;;;;;;;;;;;;;;;;6236206;22;19965;-83
2023/01/22 05:00:55;;;;;;;;;;;;;;;;;;6234746;22;19953;-83
2023/01/22 05:03:21;;;;;;;;;;;;;;;;;;6208658;22;19919;-83
2023/01/22 05:05:47;;;;;;;;;;;;;;;;;;6238149;22;19997;-83
2023/01/22 05:08:13;;;;;;;;;;;;;;;;;;6209799;22;19919;-83
2023/01/22 05:10:38;;;;;;;;;;;;;;;;;;6263144;22;19919;-83
2023/01/22 05:13:04;;;;;;;;;;;;;;;;;;6210105;22;19919;-83
2023/01/22 05:15:30;;;;;;;;;;;;;;;;;;6235446;22;19928;-83
2023/01/22 05:17:56;;;;;;;;;;;;;;;;;;6208081;22;20267;-84
2023/01/22 05:20:24;;;;;;;;;;;;;;;;;;6207261;22;19934;-83
2023/01/22 05:22:50;;;;;;;;;;;;;;;;;;6259570;22;19938;-83
2023/01/22 05:25:16;;;;;;;;;;;;;;;;;;6231799;22;19994;-83
2023/01/22 05:27:42;;;;;;;;;;;;;;;;;;6263501;22;19924;-83
2023/01/22 05:30:08;;;;;;;;;;;;;;;;;;6260889;22;20315;-83
2023/01/22 05:32:34;;;;;;;;;;;;;;;;;;6211683;22;19926;-83
2023/01/22 05:35:00;;;;;;;;;;;;;;;;;;6263312;22;20550;-83
2023/01/22 05:37:26;;;;;;;;;;;;;;;;;;6231622;22;20477;-83
2023/01/22 05:39:52;;;;;;;;;;;;;;;;;;6236910;22;19977;-83
2023/01/22 05:42:18;;;;;;;;;;;;;;;;;;6231378;22;20143;-83
2023/01/22 05:44:44;;;;;;;;;;;;;;;;;;6238389;22;20347;-83
2023/01/22 05:47:10;;;;;;;;;;;;;;;;;;6208685;22;19923;-83
2023/01/22 05:49:35;;;;;;;;;;;;;;;;;;6211410;22;19919;-83
2023/01/22 05:52:01;;;;;;;;;;;;;;;;;;6234517;22;19972;-83
2023/01/22 05:54:27;;;;;;;;;;;;;;;;;;6237250;22;19926;-83
2023/01/22 05:56:53;;;;;;;;;;;;;;;;;;6240666;22;19926;-83
2023/01/22 05:59:19;;;;;;;;;;;;;;;;;;6209625;22;19925;-84
2023/01/22 06:01:45;;;;;;;;;;;;;;;;;;6237801;22;19926;-83
2023/01/22 06:04:11;;;;;;;;;;;;;;;;;;6209280;22;19919;-83
2023/01/22 06:06:37;;;;;;;;;;;;;;;;;;6236707;22;19924;-83
2023/01/22 06:09:03;;;;;;;;;;;;;;;;;;6209337;22;20247;-83
2023/01/22 06:11:29;;;;;;;;;;;;;;;;;;6207428;22;19964;-83
2023/01/22 06:13:55;;;;;;;;;;;;;;;;;;6211425;22;19919;-83
2023/01/22 06:16:21;;;;;;;;;;;;;;;;;;6207653;22;19926;-83
2023/01/22 06:18:47;;;;;;;;;;;;;;;;;;6236191;22;19915;-83
2023/01/22 06:21:13;;;;;;;;;;;;;;;;;;6234585;22;19934;-83
2023/01/22 06:23:39;;;;;;;;;;;;;;;;;;6234472;22;19916;-83
2023/01/22 06:26:05;;;;;;;;;;;;;;;;;;6232065;22;19999;-83
2023/01/22 06:28:31;;;;;;;;;;;;;;;;;;6263857;22;19927;-83
2023/01/22 06:30:57;;;;;;;;;;;;;;;;;;6233912;22;20375;-83
2023/01/22 06:33:23;;;;;;;;;;;;;;;;;;6259666;22;20324;-83
2023/01/22 06:35:49;;;;;;;;;;;;;;;;;;6234917;22;19919;-83
2023/01/22 06:38:15;;;;;;;;;;;;;;;;;;6260016;22;19938;-83
2023/01/22 06:40:41;;;;;;;;;;;;;;;;;;6261275;22;19964;-83
2023/01/22 06:43:09;;;;;;;;;;;;;;;;;;6257749;22;19950;-83
2023/01/22 06:45:34;;;;;;;;;;;;;;;;;;6260803;22;19919;-83
2023/01/22 06:48:00;;;;;;;;;;;;;;;;;;6234169;22;20237;-83
2023/01/22 06:50:26;;;;;;;;;;;;;;;;;;6206609;22;19920;-83
2023/01/22 06:52:52;;;;;;;;;;;;;;;;;;6260431;22;19922;-83
2023/01/22 06:55:18;;;;;;;;;;;;;;;;;;6207084;22;19968;-83
2023/01/22 06:57:44;;;;;;;;;;;;;;;;;;6210443;22;19915;-83
2023/01/22 07:00:10;;;;;;;;;;;;;;;;;;6231155;22;19969;-83
2023/01/22 07:02:36;;;;;;;;;;;;;;;;;;6232121;22;20595;-83
2023/01/22 07:05:05;;;;;;;;;;;;;;;;;;6208881;22;20292;-83
2023/01/22 07:07:31;;;;;;;;;;;;;;;;;;6208587;22;19923;-83
2023/01/22 07:09:57;;;;;;;;;;;;;;;;;;6232444;22;19954;-83
2023/01/22 07:12:23;;;;;;;;;;;;;;;;;;6204060;22;20396;-83
2023/01/22 07:14:49;;;;;;;;;;;;;;;;;;6232415;22;19990;-83
2023/01/22 07:17:15;;;;;;;;;;;;;;;;;;6207503;22;20367;-83
2023/01/22 07:19:41;;;;;;;;;;;;;;;;;;6260162;22;19942;-83
2023/01/22 07:22:07;;;;;;;;;;;;;;;;;;6232317;22;20125;-83
2023/01/22 07:24:33;;;;;;;;;;;;;;;;;;6263044;22;19919;-83
2023/01/22 07:26:59;;;;;;;;;;;;;;;;;;6233744;22;20324;-83
2023/01/22 07:29:24;;;;;;;;;;;;;;;;;;6257726;22;19930;-83
2023/01/22 07:31:50;;;;;;;;;;;;;;;;;;6208355;22;19923;-83
2023/01/22 07:34:16;;;;;;;;;;;;;;;;;;6205861;22;20325;-83
2023/01/22 07:36:42;;;;;;;;;;;;;;;;;;6211027;22;19919;-83
2023/01/22 07:39:08;;;;;;;;;;;;;;;;;;6205465;22;19920;-83
2023/01/22 07:41:34;;;;;;;;;;;;;;;;;;6237384;22;19951;-83
2023/01/22 07:44:02;;;;;;;;;;;;;;;;;;6210342;22;19923;-83
2023/01/22 07:46:31;;;;;;;;;;;;;;;;;;6208639;22;19919;-83
2023/01/22 07:48:57;;;;;;;;;;;;;;;;;;6237276;22;20225;-83
2023/01/22 07:51:23;;;;;;;;;;;;;;;;;;6231448;22;20454;-83
2023/01/22 07:53:49;;;;;;;;;;;;;;;;;;6210004;22;19920;-83
2023/01/22 07:56:16;;;;;;;;;;;;;;;;;;6209396;22;19922;-83
2023/01/22 07:58:42;;;;;;;;;;;;;;;;;;6210204;22;19919;-83
2023/01/22 08:01:09;;;;;;;;;;;;;;;;;;6205377;22;19929;-83
2023/01/22 08:03:36;;;;;;;;;;;;;;;;;;6236207;22;19915;-83
2023/01/22 08:06:05;;;;;;;;;;;;;;;;;;6210611;22;19923;-83
2023/01/22 08:08:31;;;;;;;;;;;;;;;;;;6235732;22;19951;-83
2023/01/22 08:10:57;;;;;;;;;;;;;;;;;;6210501;22;19925;-83
2023/01/22 08:13:23;;;;;;;;;;;;;;;;;;6207724;22;19919;-83
2023/01/22 08:15:49;;;;;;;;;;;;;;;;;;6235691;22;19926;-83
2023/01/22 08:18:15;;;;;;;;;;;;;;;;;;6207812;22;19919;-83
2023/01/22 08:20:41;;;;;;;;;;;;;;;;;;6211698;22;19919;-83
2023/01/22 08:23:07;;;;;;;;;;;;;;;;;;6206915;22;19926;-83
2023/01/22 08:25:33;;;;;;;;;;;;;;;;;;6211557;22;20339;-83
2023/01/22 08:27:59;;;;;;;;;;;;;;;;;;6212566;22;19919;-83
2023/01/22 08:30:25;;;;;;;;;;;;;;;;;;6235577;22;20599;-83
2023/01/22 08:32:51;;;;;;;;;;;;;;;;;;6213432;22;19942;-83
2023/01/22 08:35:17;;;;;;;;;;;;;;;;;;6235888;22;19915;-87
2023/01/22 08:37:43;;;;;;;;;;;;;;;;;;6208748;22;20338;-87
2023/01/22 08:40:09;;;;;;;;;;;;;;;;;;6206967;22;19923;-88
2023/01/22 08:42:35;;;;;;;;;;;;;;;;;;6207193;22;19919;-87
2023/01/22 08:45:01;;;;;;;;;;;;;;;;;;6209841;22;19919;-87
2023/01/22 08:47:27;;;;;;;;;;;;;;;;;;6234120;22;19919;-87
2023/01/22 08:49:53;;;;;;;;;;;;;;;;;;6236313;22;19915;-87
2023/01/22 08:52:19;;;;;;;;;;;;;;;;;;6232580;22;19923;-87
2023/01/22 08:54:45;;;;;;;;;;;;;;;;;;6236028;22;19919;-87
2023/01/22 08:57:11;;;;;;;;;;;;;;;;;;6210148;22;20252;-87
2023/01/22 08:59:37;;;;;;;;;;;;;;;;;;6209940;22;19926;-87
2023/01/22 09:02:06;;;;;;;;;;;;;;;;;;6211365;22;19915;-87
2023/01/22 09:04:32;;;;;;;;;;;;;;;;;;6211264;22;20226;-87
2023/01/22 09:06:58;;;;;;;;;;;;;;;;;;6210156;22;19930;-87
2023/01/22 09:09:24;;;;;;;;;;;;;;;;;;6233925;22;20285;-87
2023/01/22 09:11:50;;;;;;;;;;;;;;;;;;6238737;22;20010;-86
2023/01/22 09:14:16;;;;;;;;;;;;;;;;;;6233110;22;19926;-87
2023/01/22 09:16:42;;;;;;;;;;;;;;;;;;6210367;22;19916;-86
2023/01/22 09:19:08;;;;;;;;;;;;;;;;;;6230987;22;20105;-86
2023/01/22 09:21:36;;;;;;;;;;;;;;;;;;6263407;22;19919;-86
2023/01/22 09:24:02;;;;;;;;;;;;;;;;;;6262371;22;19919;-86
2023/01/22 09:26:27;;;;;;;;;;;;;;;;;;6207229;22;19946;-86
2023/01/22 09:28:53;;;;;;;;;;;;;;;;;;6234651;22;19919;-86
2023/01/22 09:31:19;;;;;;;;;;;;;;;;;;6233544;22;19989;-86
2023/01/22 09:33:45;;;;;;;;;;;;;;;;;;6209124;22;19969;-86
2023/01/22 09:36:11;;;;;;;;;;;;;;;;;;6232391;22;20617;-87
2023/01/22 09:38:37;;;;;;;;;;;;;;;;;;6207173;22;20248;-86
2023/01/22 09:41:03;;;;;;;;;;;;;;;;;;6235739;22;19922;-86
2023/01/22 09:43:32;;;;;;;;;;;;;;;;;;6234629;22;20012;-86
2023/01/22 09:45:58;;;;;;;;;;;;;;;;;;6234684;22;19966;-87
2023/01/22 09:48:24;;;;;;;;;;;;;;;;;;6228038;22;20018;-87
2023/01/22 09:50:50;;;;;;;;;;;;;;;;;;6208120;22;19920;-87
2023/01/22 09:53:16;;;;;;;;;;;;;;;;;;6231728;22;20750;-87
2023/01/22 09:55:42;;;;;;;;;;;;;;;;;;6262152;22;19919;-87
2023/01/22 09:58:08;;;;;;;;;;;;;;;;;;6233226;22;19915;-87
2023/01/22 10:00:34;;;;;;;;;;;;;;;;;;6233733;22;19915;-86
2023/01/22 10:03:00;;;;;;;;;;;;;;;;;;6234256;22;19923;-87
2023/01/22 10:05:26;;;;;;;;;;;;;;;;;;6205987;22;20022;-86
2023/01/22 10:07:52;;;;;;;;;;;;;;;;;;6232310;22;19962;-86
2023/01/22 10:10:18;;;;;;;;;;;;;;;;;;6233925;22;19916;-87
2023/01/22 10:12:44;;;;;;;;;;;;;;;;;;6238036;22;19919;-86
2023/01/22 10:15:10;;;;;;;;;;;;;;;;;;6210269;22;20538;-86
2023/01/22 10:17:36;;;;;;;;;;;;;;;;;;6235954;22;19941;-87
2023/01/22 10:20:02;;;;;;;;;;;;;;;;;;6233266;22;20813;-86
2023/01/22 10:22:31;;;;;;;;;;;;;;;;;;6210701;22;20411;-85
2023/01/22 10:24:57;;;;;;;;;;;;;;;;;;6236455;22;19929;-86
2023/01/22 10:27:23;;;;;;;;;;;;;;;;;;6206687;22;19923;-86
2023/01/22 10:29:49;;;;;;;;;;;;;;;;;;6230833;23;19923;-87
2023/01/22 10:32:15;;;;;;;;;;;;;;;;;;6228542;23;20515;-86
2023/01/22 10:34:41;;;;;;;;;;;;;;;;;;6231137;23;19938;-86
2023/01/22 10:37:07;;;;;;;;;;;;;;;;;;6224983;23;20007;-87
2023/01/22 10:39:33;;;;;;;;;;;;;;;;;;6231903;23;19992;-86
2023/01/22 10:41:59;;;;;;;;;;;;;;;;;;6231144;23;19927;-86
2023/01/22 10:44:25;;;;;;;;;;;;;;;;;;6227210;23;20362;-87
2023/01/22 10:46:51;;;;;;;;;;;;;;;;;;6225849;23;20089;-87
2023/01/22 10:49:17;;;;;;;;;;;;;;;;;;6229726;23;19915;-86
2023/01/22 10:51:43;;;;;;;;;;;;;;;;;;6232526;23;19919;-86
2023/01/22 10:54:11;;;;;;;;;;;;;;;;;;6230423;23;19925;-86
2023/01/22 10:56:37;;;;;;;;;;;;;;;;;;6231367;23;20332;-87
2023/01/22 10:59:03;;;;;;;;;;;;;;;;;;6229687;23;19958;-87
2023/01/22 11:01:29;;;;;;;;;;;;;;;;;;6230737;23;19919;-86
2023/01/22 11:03:55;;;;;;;;;;;;;;;;;;6233101;23;20356;-86
2023/01/22 11:06:21;;;;;;;;;;;;;;;;;;6233162;23;19923;-86
2023/01/22 11:08:47;;;;;;;;;;;;;;;;;;6230385;23;20368;-86
2023/01/22 11:11:13;;;;;;;;;;;;;;;;;;6232812;23;20236;-86
2023/01/22 11:13:39;;;;;;;;;;;;;;;;;;6231836;23;19920;-86
2023/01/22 11:16:05;;;;;;;;;;;;;;;;;;6229599;23;19920;-86
2023/01/22 11:18:31;;;;;;;;;;;;;;;;;;6230214;23;20347;-86
2023/01/22 11:20:57;;;;;;;;;;;;;;;;;;6231118;23;19926;-86
2023/01/22 11:23:23;;;;;;;;;;;;;;;;;;6230803;22;19915;-87
2023/01/22 11:25:49;;;;;;;;;;;;;;;;;;6231210;23;19915;-86
2023/01/22 11:28:16;;;;;;;;;;;;;;;;;;6227211;23;19935;-86
2023/01/22 11:30:42;;;;;;;;;;;;;;;;;;6229054;23;19924;-86
2023/01/22 11:33:08;;;;;;;;;;;;;;;;;;6226868;23;19916;-86
2023/01/22 11:35:35;;;;;;;;;;;;;;;;;;6231697;23;19915;-86
2023/01/22 11:38:01;;;;;;;;;;;;;;;;;;6255666;22;19919;-87
2023/01/22 11:40:27;;;;;;;;;;;;;;;;;;6203080;23;19923;-87
2023/01/22 11:42:53;;;;;;;;;;;;;;;;;;6229297;23;19919;-86
2023/01/22 11:45:19;;;;;;;;;;;;;;;;;;6226817;23;19923;-86
2023/01/22 11:47:45;;;;;;;;;;;;;;;;;;6228827;23;19924;-87
2023/01/22 11:50:11;;;;;;;;;;;;;;;;;;6225397;23;19927;-87
2023/01/22 11:52:37;;;;;;;;;;;;;;;;;;6232948;23;19962;-86
2023/01/22 11:55:08;;;;;;;;;;;;;;;;;;6234006;23;19919;-87
2023/01/22 11:57:35;;;;;;;;;;;;;;;;;;6229913;23;19927;-87
2023/01/22 12:00:04;;;;;;;;;;;;;;;;;;6231303;23;19919;-87
2023/01/22 12:02:30;;;;;;;;;;;;;;;;;;6228664;23;19962;-87
2023/01/22 12:04:56;;;;;;;;;;;;;;;;;;6233219;23;19979;-87
2023/01/22 12:07:22;;;;;;;;;;;;;;;;;;6229636;23;20400;-87
2023/01/22 12:09:48;;;;;;;;;;;;;;;;;;6205301;23;19958;-87
2023/01/22 12:12:14;;;;;;;;;;;;;;;;;;6227838;23;19916;-87
2023/01/22 12:14:40;;;;;;;;;;;;;;;;;;6256222;22;19923;-87
2023/01/22 12:17:06;;;;;;;;;;;;;;;;;;6226206;23;19919;-87
2023/01/22 12:19:32;;;;;;;;;;;;;;;;;;6224463;23;19920;-86
2023/01/22 12:21:58;;;;;;;;;;;;;;;;;;6225662;22;19966;-87
2023/01/22 12:24:24;;;;;;;;;;;;;;;;;;6228498;23;19926;-87
2023/01/22 12:26:50;;;;;;;;;;;;;;;;;;6226188;23;20325;-87
2023/01/22 12:47:38;;;;;;;;;;;;;;;;;;6263277;22;19923;-88
2023/01/22 12:50:04;;;;;;;;;;;;;;;;;;6233326;22;19919;-85
2023/01/22 12:52:33;;;;;;;;;;;;;;;;;;6206014;22;19927;-86
2023/01/22 12:55:01;;;;;;;;;;;;;;;;;;6225019;22;20204;-86
2023/01/22 12:57:27;;;;;;;;;;;;;;;;;;6222960;22;19919;-86
2023/01/22 12:59:53;;;;;;;;;;;;;;;;;;6210182;22;20220;-86
2023/01/22 13:05:22;;;;;;;;;;;;;;;;;;6233153;22;19923;-86
2023/01/22 13:07:48;;;;;;;;;;;;;;;;;;6200249;22;20279;-86
2023/01/22 13:10:16;;;;;;;;;;;;;;;;;;6202113;22;20346;-86
2023/01/22 13:12:58;;;;;;;;;;;;;;;;;;6233308;22;19946;-86
2023/01/22 13:15:36;;;;;;;;;;;;;;;;;;6214179;22;20337;-86
2023/01/22 13:18:12;;;;;;;;;;;;;;;;;;6208745;22;20221;-86
2023/01/22 13:20:38;;;;;;;;;;;;;;;;;;6235002;22;20260;-86
2023/01/22 13:23:06;;;;;;;;;;;;;;;;;;6235892;22;19922;-87
2023/01/22 13:25:32;;;;;;;;;;;;;;;;;;6210582;22;20332;-85
2023/01/22 13:34:07;;;;;;;;;;;;;;;;;;6256599;22;19919;-86
2023/01/22 13:36:48;;;;;;;;;;;;;;;;;;6210496;22;19997;-86
2023/01/22 13:45:46;;;;;;;;;;;;;;;;;;6043101;23;20254;-86
2023/01/22 13:48:39;;;;;;;;;;;;;;;;;;;;;
2023/01/22 13:51:15;;;;;;;;;;;;;;;;;;6047108;23;19927;-85
2023/01/22 13:56:55;;;;;;;;;;;;;;;;;;6072708;23;20329;-86
2023/01/22 13:59:44;;;;;;;;;;;;;;;;;;6073010;23;19928;-86
2023/01/22 14:02:25;;;;;;;;;;;;;;;;;;6066885;23;20254;-86
2023/01/22 14:05:05;;;;;;;;;;;;;;;;;;6073547;23;19925;-85
2023/01/22 15:32:45;;;;;;;;;;;;;;;;;;;;;
2023/01/22 15:35:20;;;;;;;;;;;;;;;;;;6230231;22;19970;-86
2023/01/22 15:37:47;;;;;;;;;;;;;;;;;;6205169;22;19922;-85
2023/01/22 15:40:13;;;;;;;;;;;;;;;;;;6205519;22;19969;-85
2023/01/22 15:42:39;;;;;;;;;;;;;;;;;;6205407;22;19919;-85
2023/01/22 15:45:10;;;;;;;;;;;;;;;;;;6203734;22;19994;-86
2023/01/22 15:47:54;;;;;;;;;;;;;;;;;;6201547;22;19927;-85
2023/01/22 15:50:38;;;;;;;;;;;;;;;;;;6253264;22;19919;-84
2023/01/22 15:53:07;;;;;;;;;;;;;;;;;;6197161;22;19927;-84
2023/01/22 15:55:33;;;;;;;;;;;;;;;;;;6199776;22;19919;-84
2023/01/22 15:57:59;;;;;;;;;;;;;;;;;;6225252;22;20284;-84
2023/01/22 16:00:26;;;;;;;;;;;;;;;;;;6203790;22;19919;-84
2023/01/22 16:02:52;;;;;;;;;;;;;;;;;;6208456;22;19919;-83
2023/01/22 16:05:20;;;;;;;;;;;;;;;;;;6211077;22;19919;-84
2023/01/22 16:07:46;;;;;;;;;;;;;;;;;;6236428;22;20351;-84
2023/01/22 16:10:12;;;;;;;;;;;;;;;;;;6209238;22;20296;-84
2023/01/22 16:12:38;;;;;;;;;;;;;;;;;;6211207;22;19919;-84
2023/01/22 16:15:04;;;;;;;;;;;;;;;;;;6237132;22;19947;-84
2023/01/22 16:17:30;;;;;;;;;;;;;;;;;;6210223;22;19915;-83
2023/01/22 16:19:56;;;;;;;;;;;;;;;;;;6235700;22;19969;-83
2023/01/22 16:22:21;;;;;;;;;;;;;;;;;;6209437;22;19923;-83
2023/01/22 16:24:47;;;;;;;;;;;;;;;;;;6206725;22;19994;-83
2023/01/22 16:27:13;;;;;;;;;;;;;;;;;;6204124;22;19923;-83
2023/01/22 16:29:39;;;;;;;;;;;;;;;;;;6214600;22;19998;-83
2023/01/22 16:32:05;;;;;;;;;;;;;;;;;;6262468;22;20124;-83
2023/01/22 16:34:31;;;;;;;;;;;;;;;;;;6263325;22;19918;-83
2023/01/22 16:36:58;;;;;;;;;;;;;;;;;;6235836;22;19965;-83
2023/01/22 16:39:27;;;;;;;;;;;;;;;;;;6259902;22;20383;-83
2023/01/22 16:41:53;;;;;;;;;;;;;;;;;;6234234;22;19986;-84
2023/01/22 16:44:19;;;;;;;;;;;;;;;;;;6255680;22;20037;-83
2023/01/22 16:46:45;;;;;;;;;;;;;;;;;;6236756;22;20426;-83
2023/01/22 16:49:13;;;;;;;;;;;;;;;;;;6233895;22;19919;-83
2023/01/22 16:51:39;;;;;;;;;;;;;;;;;;6237681;22;19960;-83
2023/01/22 16:54:05;;;;;;;;;;;;;;;;;;6259387;22;20228;-83
2023/01/22 16:56:31;;;;;;;;;;;;;;;;;;6259807;22;19925;-83
2023/01/22 16:58:57;;;;;;;;;;;;;;;;;;6262909;22;19969;-83
2023/01/22 17:01:23;;;;;;;;;;;;;;;;;;6232241;22;20009;-83
2023/01/22 17:03:49;;;;;;;;;;;;;;;;;;6239478;22;19919;-83
2023/01/22 17:06:15;;;;;;;;;;;;;;;;;;6261181;22;19954;-83
2023/01/22 17:08:41;;;;;;;;;;;;;;;;;;6232535;22;19946;-84
2023/01/22 17:11:07;;;;;;;;;;;;;;;;;;6227767;22;19919;-83
2023/01/22 17:13:33;;;;;;;;;;;;;;;;;;6263080;22;19965;-83
2023/01/22 17:15:59;;;;;;;;;;;;;;;;;;6262099;22;19994;-83
2023/01/22 17:18:24;;;;;;;;;;;;;;;;;;6232989;22;19918;-84
2023/01/22 17:20:50;;;;;;;;;;;;;;;;;;6235609;22;19998;-83
2023/01/22 17:23:16;;;;;;;;;;;;;;;;;;6256410;22;19918;-83
2023/01/22 17:25:42;;;;;;;;;;;;;;;;;;6236724;22;20411;-83
2023/01/22 17:28:08;;;;;;;;;;;;;;;;;;6260418;22;19938;-83
2023/01/22 17:30:34;;;;;;;;;;;;;;;;;;6262503;22;20278;-83
2023/01/22 17:33:00;;;;;;;;;;;;;;;;;;6259372;22;19989;-83
2023/01/22 17:35:26;;;;;;;;;;;;;;;;;;6260968;22;19929;-83
2023/01/22 17:37:52;;;;;;;;;;;;;;;;;;6257523;22;19919;-83
2023/01/22 17:40:18;;;;;;;;;;;;;;;;;;6257847;22;20396;-83
2023/01/22 17:42:44;;;;;;;;;;;;;;;;;;6237362;22;19973;-83
2023/01/22 17:45:13;;;;;;;;;;;;;;;;;;6231617;22;19965;-83
2023/01/22 17:47:39;;;;;;;;;;;;;;;;;;6238355;22;19923;-83
2023/01/22 17:50:07;;;;;;;;;;;;;;;;;;6232398;22;19949;-83
2023/01/22 17:52:33;;;;;;;;;;;;;;;;;;6240605;22;19964;-83
2023/01/22 17:54:59;;;;;;;;;;;;;;;;;;6238804;22;19994;-83
2023/01/22 17:57:25;;;;;;;;;;;;;;;;;;6233073;22;20335;-83
2023/01/22 17:59:51;;;;;;;;;;;;;;;;;;6237000;22;19919;-83
2023/01/22 18:02:17;;;;;;;;;;;;;;;;;;6233130;22;19918;-83
2023/01/22 18:04:43;;;;;;;;;;;;;;;;;;6235652;22;20021;-83
2023/01/22 18:07:09;;;;;;;;;;;;;;;;;;6236396;22;19919;-83
2023/01/22 18:09:35;;;;;;;;;;;;;;;;;;6232876;22;20443;-83
2023/01/22 18:12:01;;;;;;;;;;;;;;;;;;6238374;22;19918;-83
2023/01/22 18:14:32;;;;;;;;;;;;;;;;;;6237472;22;19925;-83
2023/01/22 18:16:58;;;;;;;;;;;;;;;;;;6237123;22;19919;-83
2023/01/22 18:19:24;;;;;;;;;;;;;;;;;;6235314;22;20222;-83
2023/01/22 18:21:50;;;;;;;;;;;;;;;;;;6240636;22;19923;-83
2023/01/22 18:24:16;;;;;;;;;;;;;;;;;;6236514;22;19923;-83
2023/01/22 18:26:42;;;;;;;;;;;;;;;;;;6235281;22;19981;-83
2023/01/22 18:29:09;;;;;;;;;;;;;;;;;;6238138;22;20430;-81
2023/01/22 18:31:35;;;;;;;;;;;;;;;;;;6227840;22;20096;-82
2023/01/22 18:34:01;;;;;;;;;;;;;;;;;;6257580;22;20359;-82
2023/01/22 18:36:27;;;;;;;;;;;;;;;;;;6229970;22;20259;-82
2023/01/22 18:38:53;;;;;;;;;;;;;;;;;;6251410;22;20432;-82
2023/01/22 18:41:19;;;;;;;;;;;;;;;;;;6234201;22;19919;-82
2023/01/22 18:43:45;;;;;;;;;;;;;;;;;;6259544;22;19922;-82
2023/01/22 18:46:11;;;;;;;;;;;;;;;;;;6235287;22;20422;-82
2023/01/22 18:48:37;;;;;;;;;;;;;;;;;;6261079;22;20353;-81
2023/01/22 18:51:04;;;;;;;;;;;;;;;;;;6257749;22;20406;-81
2023/01/22 18:53:31;;;;;;;;;;;;;;;;;;6259798;22;19981;-81
2023/01/22 18:55:57;;;;;;;;;;;;;;;;;;6263717;22;19919;-82
2023/01/22 18:58:29;;;;;;;;;;;;;;;;;;6258409;22;20243;-82